sensor_id;sensor_type;location;lat;lon;timestamp;P1;durP1;ratioP1;P2;durP2;ratioP2
10335;SDS011;5213;53.548;9.930;2023-01-16T00:02:04;6.07;;;4.50;;
10335;SDS011;5213;53.548;9.930;2023-01-16T00:04:30;5.50;;;3.90;;
10335;SDS011;5213;53.548;9.930;2023-01-16T00:06:59;5.68;;;4.47;;
10335;SDS011;5213;53.548;9.930;2023-01-16T00:09:25;4.95;;;4.50;;
10335;SDS011;5213;53.548;9.930;2023-01-16T00:11:51;5.50;;;4.90;;
10335;SDS011;5213;53.548;9.930;2023-01-16T00:14:17;6.95;;;4.90;;
10335;SDS011;5213;53.548;9.930;2023-01-16T00:16:43;5.95;;;4.80;;
10335;SDS011;5213;53.548;9.930;2023-01-16T00:19:09;5.15;;;4.70;;
10335;SDS011;5213;53.548;9.930;2023-01-16T00:21:35;7.45;;;5.13;;
10335;SDS011;5213;53.548;9.930;2023-01-16T00:24:01;6.15;;;4.80;;
10335;SDS011;5213;53.548;9.930;2023-01-16T00:26:27;5.22;;;4.72;;
10335;SDS011;5213;53.548;9.930;2023-01-16T00:28:54;4.97;;;4.47;;
10335;SDS011;5213;53.548;9.930;2023-01-16T00:31:20;6.20;;;4.70;;
10335;SDS011;5213;53.548;9.930;2023-01-16T00:33:50;4.20;;;3.67;;
10335;SDS011;5213;53.548;9.930;2023-01-16T00:36:16;4.47;;;4.05;;
10335;SDS011;5213;53.548;9.930;2023-01-16T00:38:42;4.75;;;3.80;;
10335;SDS011;5213;53.548;9.930;2023-01-16T00:41:08;4.90;;;4.07;;
10335;SDS011;5213;53.548;9.930;2023-01-16T00:43:34;4.65;;;3.40;;
10335;SDS011;5213;53.548;9.930;2023-01-16T00:46:00;5.20;;;3.95;;
10335;SDS011;5213;53.548;9.930;2023-01-16T00:48:26;8.07;;;3.67;;
10335;SDS011;5213;53.548;9.930;2023-01-16T00:50:52;6.22;;;3.85;;
10335;SDS011;5213;53.548;9.930;2023-01-16T00:53:19;6.43;;;3.60;;
10335;SDS011;5213;53.548;9.930;2023-01-16T00:55:45;3.95;;;3.10;;
10335;SDS011;5213;53.548;9.930;2023-01-16T00:58:11;4.50;;;2.92;;
10335;SDS011;5213;53.548;9.930;2023-01-16T01:00:37;3.63;;;3.30;;
10335;SDS011;5213;53.548;9.930;2023-01-16T01:03:03;4.97;;;3.22;;
10335;SDS011;5213;53.548;9.930;2023-01-16T01:05:30;3.80;;;3.08;;
10335;SDS011;5213;53.548;9.930;2023-01-16T01:07:56;4.55;;;3.38;;
10335;SDS011;5213;53.548;9.930;2023-01-16T01:10:22;4.68;;;3.17;;
10335;SDS011;5213;53.548;9.930;2023-01-16T01:12:50;5.70;;;3.63;;
10335;SDS011;5213;53.548;9.930;2023-01-16T01:15:18;3.42;;;3.13;;
10335;SDS011;5213;53.548;9.930;2023-01-16T01:17:44;4.38;;;3.38;;
10335;SDS011;5213;53.548;9.930;2023-01-16T01:20:10;4.55;;;3.50;;
10335;SDS011;5213;53.548;9.930;2023-01-16T01:22:36;4.78;;;3.60;;
10335;SDS011;5213;53.548;9.930;2023-01-16T01:25:02;6.93;;;3.70;;
10335;SDS011;5213;53.548;9.930;2023-01-16T01:27:29;4.15;;;3.72;;
10335;SDS011;5213;53.548;9.930;2023-01-16T01:29:55;5.57;;;3.80;;
10335;SDS011;5213;53.548;9.930;2023-01-16T01:32:21;4.43;;;3.42;;
10335;SDS011;5213;53.548;9.930;2023-01-16T01:34:47;6.32;;;3.42;;
10335;SDS011;5213;53.548;9.930;2023-01-16T01:37:13;4.65;;;3.25;;
10335;SDS011;5213;53.548;9.930;2023-01-16T01:39:39;5.68;;;3.40;;
10335;SDS011;5213;53.548;9.930;2023-01-16T01:42:05;6.30;;;3.30;;
10335;SDS011;5213;53.548;9.930;2023-01-16T01:44:51;3.83;;;2.60;;
10335;SDS011;5213;53.548;9.930;2023-01-16T01:47:18;2.95;;;2.42;;
10335;SDS011;5213;53.548;9.930;2023-01-16T01:49:46;2.88;;;2.55;;
10335;SDS011;5213;53.548;9.930;2023-01-16T01:52:12;3.90;;;2.80;;
10335;SDS011;5213;53.548;9.930;2023-01-16T01:54:40;6.18;;;2.90;;
10335;SDS011;5213;53.548;9.930;2023-01-16T01:57:12;3.92;;;2.60;;
10335;SDS011;5213;53.548;9.930;2023-01-16T01:59:41;3.08;;;2.10;;
10335;SDS011;5213;53.548;9.930;2023-01-16T02:02:10;2.58;;;2.00;;
10335;SDS011;5213;53.548;9.930;2023-01-16T02:04:39;2.45;;;2.13;;
10335;SDS011;5213;53.548;9.930;2023-01-16T02:07:07;2.20;;;1.90;;
10335;SDS011;5213;53.548;9.930;2023-01-16T02:09:34;5.65;;;2.00;;
10335;SDS011;5213;53.548;9.930;2023-01-16T02:12:07;2.28;;;2.00;;
10335;SDS011;5213;53.548;9.930;2023-01-16T02:14:35;2.90;;;1.65;;
10335;SDS011;5213;53.548;9.930;2023-01-16T02:17:06;2.75;;;1.70;;
10335;SDS011;5213;53.548;9.930;2023-01-16T02:24:54;2.83;;;1.73;;
10335;SDS011;5213;53.548;9.930;2023-01-16T02:37:47;3.70;;;2.17;;
10335;SDS011;5213;53.548;9.930;2023-01-16T02:42:45;2.85;;;1.77;;
10335;SDS011;5213;53.548;9.930;2023-01-16T02:45:28;5.30;;;1.88;;
10335;SDS011;5213;53.548;9.930;2023-01-16T02:47:58;4.15;;;1.80;;
10335;SDS011;5213;53.548;9.930;2023-01-16T02:50:36;6.95;;;2.00;;
10335;SDS011;5213;53.548;9.930;2023-01-16T02:58:07;5.28;;;1.90;;
10335;SDS011;5213;53.548;9.930;2023-01-16T03:00:36;2.53;;;1.80;;
10335;SDS011;5213;53.548;9.930;2023-01-16T03:03:02;2.30;;;1.55;;
10335;SDS011;5213;53.548;9.930;2023-01-16T03:05:31;3.40;;;1.92;;
10335;SDS011;5213;53.548;9.930;2023-01-16T03:10:43;2.88;;;1.80;;
10335;SDS011;5213;53.548;9.930;2023-01-16T03:26:06;2.53;;;1.85;;
10335;SDS011;5213;53.548;9.930;2023-01-16T03:33:58;2.85;;;1.73;;
10335;SDS011;5213;53.548;9.930;2023-01-16T03:36:45;4.05;;;1.70;;
10335;SDS011;5213;53.548;9.930;2023-01-16T03:39:13;2.95;;;1.80;;
10335;SDS011;5213;53.548;9.930;2023-01-16T03:41:40;5.03;;;2.00;;
10335;SDS011;5213;53.548;9.930;2023-01-16T03:44:50;2.25;;;1.98;;
10335;SDS011;5213;53.548;9.930;2023-01-16T03:46:56;3.13;;;1.70;;
10335;SDS011;5213;53.548;9.930;2023-01-16T03:49:25;2.58;;;1.85;;
10335;SDS011;5213;53.548;9.930;2023-01-16T03:51:53;4.07;;;1.95;;
10335;SDS011;5213;53.548;9.930;2023-01-16T03:59:30;2.22;;;1.73;;
10335;SDS011;5213;53.548;9.930;2023-01-16T04:01:58;3.63;;;1.80;;
10335;SDS011;5213;53.548;9.930;2023-01-16T04:04:44;2.22;;;1.83;;
10335;SDS011;5213;53.548;9.930;2023-01-16T04:09:57;2.17;;;1.60;;
10335;SDS011;5213;53.548;9.930;2023-01-16T04:12:25;2.08;;;1.70;;
10335;SDS011;5213;53.548;9.930;2023-01-16T04:15:00;5.20;;;1.98;;
10335;SDS011;5213;53.548;9.930;2023-01-16T04:17:27;1.90;;;1.70;;
10335;SDS011;5213;53.548;9.930;2023-01-16T04:19:53;3.03;;;1.30;;
10335;SDS011;5213;53.548;9.930;2023-01-16T04:22:20;2.15;;;1.42;;
10335;SDS011;5213;53.548;9.930;2023-01-16T04:24:47;3.72;;;1.70;;
10335;SDS011;5213;53.548;9.930;2023-01-16T04:27:14;2.33;;;1.70;;
10335;SDS011;5213;53.548;9.930;2023-01-16T04:29:40;5.32;;;1.80;;
10335;SDS011;5213;53.548;9.930;2023-01-16T04:32:06;3.28;;;1.55;;
10335;SDS011;5213;53.548;9.930;2023-01-16T04:34:32;1.60;;;1.50;;
10335;SDS011;5213;53.548;9.930;2023-01-16T04:36:59;4.47;;;1.45;;
10335;SDS011;5213;53.548;9.930;2023-01-16T04:39:25;1.83;;;1.65;;
10335;SDS011;5213;53.548;9.930;2023-01-16T04:41:51;2.45;;;1.80;;
10335;SDS011;5213;53.548;9.930;2023-01-16T04:44:17;5.45;;;1.90;;
10335;SDS011;5213;53.548;9.930;2023-01-16T04:46:43;1.48;;;1.25;;
10335;SDS011;5213;53.548;9.930;2023-01-16T04:49:09;3.30;;;1.58;;
10335;SDS011;5213;53.548;9.930;2023-01-16T04:51:36;2.85;;;1.50;;
10335;SDS011;5213;53.548;9.930;2023-01-16T04:54:02;4.38;;;1.48;;
10335;SDS011;5213;53.548;9.930;2023-01-16T04:56:29;2.35;;;1.33;;
10335;SDS011;5213;53.548;9.930;2023-01-16T04:58:55;1.50;;;1.30;;
10335;SDS011;5213;53.548;9.930;2023-01-16T05:01:21;2.55;;;1.33;;
10335;SDS011;5213;53.548;9.930;2023-01-16T05:03:47;2.50;;;1.40;;
10335;SDS011;5213;53.548;9.930;2023-01-16T05:06:13;2.75;;;1.67;;
10335;SDS011;5213;53.548;9.930;2023-01-16T05:08:39;4.20;;;1.30;;
10335;SDS011;5213;53.548;9.930;2023-01-16T05:11:05;3.97;;;1.40;;
10335;SDS011;5213;53.548;9.930;2023-01-16T05:13:31;5.53;;;1.50;;
10335;SDS011;5213;53.548;9.930;2023-01-16T05:15:57;2.22;;;1.30;;
10335;SDS011;5213;53.548;9.930;2023-01-16T05:18:23;2.45;;;1.17;;
10335;SDS011;5213;53.548;9.930;2023-01-16T05:20:50;3.97;;;1.80;;
10335;SDS011;5213;53.548;9.930;2023-01-16T05:23:16;3.47;;;1.60;;
10335;SDS011;5213;53.548;9.930;2023-01-16T05:25:42;3.30;;;1.50;;
10335;SDS011;5213;53.548;9.930;2023-01-16T05:28:08;1.58;;;1.30;;
10335;SDS011;5213;53.548;9.930;2023-01-16T05:30:34;2.45;;;1.30;;
10335;SDS011;5213;53.548;9.930;2023-01-16T05:33:00;1.63;;;1.30;;
10335;SDS011;5213;53.548;9.930;2023-01-16T05:35:27;1.83;;;1.35;;
10335;SDS011;5213;53.548;9.930;2023-01-16T05:37:53;3.13;;;1.52;;
10335;SDS011;5213;53.548;9.930;2023-01-16T05:40:19;5.28;;;2.65;;
10335;SDS011;5213;53.548;9.930;2023-01-16T05:42:45;2.92;;;1.20;;
10335;SDS011;5213;53.548;9.930;2023-01-16T05:45:13;3.63;;;1.50;;
10335;SDS011;5213;53.548;9.930;2023-01-16T05:47:39;2.38;;;1.27;;
10335;SDS011;5213;53.548;9.930;2023-01-16T05:50:05;2.65;;;1.20;;
10335;SDS011;5213;53.548;9.930;2023-01-16T05:52:31;3.72;;;1.40;;
10335;SDS011;5213;53.548;9.930;2023-01-16T05:54:57;1.67;;;1.13;;
10335;SDS011;5213;53.548;9.930;2023-01-16T05:57:23;1.85;;;1.20;;
10335;SDS011;5213;53.548;9.930;2023-01-16T05:59:50;2.30;;;1.40;;
10335;SDS011;5213;53.548;9.930;2023-01-16T06:02:16;1.83;;;1.33;;
10335;SDS011;5213;53.548;9.930;2023-01-16T06:04:43;3.35;;;1.13;;
10335;SDS011;5213;53.548;9.930;2023-01-16T06:07:09;2.70;;;1.25;;
10335;SDS011;5213;53.548;9.930;2023-01-16T06:09:35;2.60;;;1.50;;
10335;SDS011;5213;53.548;9.930;2023-01-16T06:12:01;2.35;;;1.33;;
10335;SDS011;5213;53.548;9.930;2023-01-16T06:14:27;3.03;;;1.60;;
10335;SDS011;5213;53.548;9.930;2023-01-16T06:16:53;2.47;;;1.38;;
10335;SDS011;5213;53.548;9.930;2023-01-16T06:19:19;1.48;;;1.27;;
10335;SDS011;5213;53.548;9.930;2023-01-16T06:21:45;2.08;;;1.27;;
10335;SDS011;5213;53.548;9.930;2023-01-16T06:24:11;2.17;;;1.50;;
10335;SDS011;5213;53.548;9.930;2023-01-16T06:26:37;2.53;;;1.40;;
10335;SDS011;5213;53.548;9.930;2023-01-16T06:29:03;2.25;;;1.50;;
10335;SDS011;5213;53.548;9.930;2023-01-16T06:31:29;2.05;;;1.30;;
10335;SDS011;5213;53.548;9.930;2023-01-16T06:33:55;2.60;;;1.48;;
10335;SDS011;5213;53.548;9.930;2023-01-16T06:36:21;5.18;;;1.40;;
10335;SDS011;5213;53.548;9.930;2023-01-16T06:38:47;3.58;;;1.50;;
10335;SDS011;5213;53.548;9.930;2023-01-16T06:41:14;2.40;;;1.75;;
10335;SDS011;5213;53.548;9.930;2023-01-16T06:43:40;2.65;;;1.50;;
10335;SDS011;5213;53.548;9.930;2023-01-16T06:46:06;5.22;;;1.50;;
10335;SDS011;5213;53.548;9.930;2023-01-16T06:48:32;1.52;;;1.30;;
10335;SDS011;5213;53.548;9.930;2023-01-16T06:50:59;1.50;;;1.40;;
10335;SDS011;5213;53.548;9.930;2023-01-16T06:53:25;3.10;;;1.48;;
10335;SDS011;5213;53.548;9.930;2023-01-16T06:55:51;2.60;;;1.75;;
10335;SDS011;5213;53.548;9.930;2023-01-16T06:58:17;3.33;;;1.30;;
10335;SDS011;5213;53.548;9.930;2023-01-16T07:00:43;4.22;;;1.50;;
10335;SDS011;5213;53.548;9.930;2023-01-16T07:03:10;3.10;;;1.48;;
10335;SDS011;5213;53.548;9.930;2023-01-16T07:05:37;2.15;;;1.67;;
10335;SDS011;5213;53.548;9.930;2023-01-16T07:08:04;3.60;;;1.50;;
10335;SDS011;5213;53.548;9.930;2023-01-16T07:10:30;2.40;;;1.45;;
10335;SDS011;5213;53.548;9.930;2023-01-16T07:12:56;1.70;;;1.17;;
10335;SDS011;5213;53.548;9.930;2023-01-16T07:15:22;2.90;;;1.70;;
10335;SDS011;5213;53.548;9.930;2023-01-16T07:18:09;2.30;;;1.60;;
10335;SDS011;5213;53.548;9.930;2023-01-16T07:20:56;2.35;;;1.63;;
10335;SDS011;5213;53.548;9.930;2023-01-16T07:23:43;2.92;;;1.98;;
10335;SDS011;5213;53.548;9.930;2023-01-16T07:26:10;2.10;;;1.50;;
10335;SDS011;5213;53.548;9.930;2023-01-16T07:28:36;2.85;;;1.50;;
10335;SDS011;5213;53.548;9.930;2023-01-16T07:31:02;2.83;;;1.40;;
10335;SDS011;5213;53.548;9.930;2023-01-16T07:33:30;5.13;;;1.65;;
10335;SDS011;5213;53.548;9.930;2023-01-16T07:35:56;2.75;;;1.60;;
10335;SDS011;5213;53.548;9.930;2023-01-16T07:38:22;5.95;;;1.70;;
10335;SDS011;5213;53.548;9.930;2023-01-16T07:40:48;2.00;;;1.60;;
10335;SDS011;5213;53.548;9.930;2023-01-16T07:43:14;2.60;;;1.60;;
10335;SDS011;5213;53.548;9.930;2023-01-16T07:45:40;3.92;;;1.80;;
10335;SDS011;5213;53.548;9.930;2023-01-16T07:48:07;2.90;;;1.75;;
10335;SDS011;5213;53.548;9.930;2023-01-16T07:50:33;2.47;;;1.70;;
10335;SDS011;5213;53.548;9.930;2023-01-16T07:52:59;4.30;;;1.70;;
10335;SDS011;5213;53.548;9.930;2023-01-16T07:55:25;2.17;;;1.60;;
10335;SDS011;5213;53.548;9.930;2023-01-16T07:57:51;4.30;;;1.70;;
10335;SDS011;5213;53.548;9.930;2023-01-16T08:00:17;4.65;;;2.00;;
10335;SDS011;5213;53.548;9.930;2023-01-16T08:02:43;5.05;;;2.33;;
10335;SDS011;5213;53.548;9.930;2023-01-16T08:05:10;4.45;;;1.63;;
10335;SDS011;5213;53.548;9.930;2023-01-16T08:07:36;4.07;;;1.88;;
10335;SDS011;5213;53.548;9.930;2023-01-16T08:10:02;4.50;;;1.70;;
10335;SDS011;5213;53.548;9.930;2023-01-16T08:12:29;4.00;;;2.28;;
10335;SDS011;5213;53.548;9.930;2023-01-16T08:14:55;3.05;;;1.40;;
10335;SDS011;5213;53.548;9.930;2023-01-16T08:17:21;3.47;;;2.10;;
10335;SDS011;5213;53.548;9.930;2023-01-16T08:19:47;5.03;;;2.00;;
10335;SDS011;5213;53.548;9.930;2023-01-16T08:22:13;7.32;;;2.13;;
10335;SDS011;5213;53.548;9.930;2023-01-16T08:24:39;3.38;;;1.73;;
10335;SDS011;5213;53.548;9.930;2023-01-16T08:27:05;2.38;;;1.60;;
10335;SDS011;5213;53.548;9.930;2023-01-16T08:29:31;2.95;;;1.50;;
10335;SDS011;5213;53.548;9.930;2023-01-16T08:31:57;1.60;;;1.50;;
10335;SDS011;5213;53.548;9.930;2023-01-16T08:34:23;3.25;;;1.60;;
10335;SDS011;5213;53.548;9.930;2023-01-16T08:36:49;3.13;;;1.60;;
10335;SDS011;5213;53.548;9.930;2023-01-16T08:39:15;2.45;;;1.63;;
10335;SDS011;5213;53.548;9.930;2023-01-16T08:41:41;2.38;;;1.50;;
10335;SDS011;5213;53.548;9.930;2023-01-16T08:44:26;1.73;;;1.50;;
10335;SDS011;5213;53.548;9.930;2023-01-16T08:47:12;2.05;;;1.45;;
10335;SDS011;5213;53.548;9.930;2023-01-16T08:49:58;3.80;;;1.67;;
10335;SDS011;5213;53.548;9.930;2023-01-16T08:52:42;2.05;;;1.45;;
10335;SDS011;5213;53.548;9.930;2023-01-16T08:55:09;3.22;;;1.67;;
10335;SDS011;5213;53.548;9.930;2023-01-16T08:57:35;2.28;;;1.60;;
10335;SDS011;5213;53.548;9.930;2023-01-16T09:00:03;2.47;;;1.60;;
10335;SDS011;5213;53.548;9.930;2023-01-16T09:02:29;8.82;;;1.90;;
10335;SDS011;5213;53.548;9.930;2023-01-16T09:04:59;2.28;;;1.83;;
10335;SDS011;5213;53.548;9.930;2023-01-16T09:07:25;2.63;;;1.73;;
10335;SDS011;5213;53.548;9.930;2023-01-16T09:09:52;2.13;;;1.52;;
10335;SDS011;5213;53.548;9.930;2023-01-16T09:12:18;2.35;;;1.45;;
10335;SDS011;5213;53.548;9.930;2023-01-16T09:15:03;2.95;;;1.63;;
10335;SDS011;5213;53.548;9.930;2023-01-16T09:17:29;2.03;;;1.60;;
10335;SDS011;5213;53.548;9.930;2023-01-16T09:19:55;4.30;;;2.22;;
10335;SDS011;5213;53.548;9.930;2023-01-16T09:22:24;1.55;;;1.45;;
10335;SDS011;5213;53.548;9.930;2023-01-16T09:24:51;3.33;;;1.73;;
10335;SDS011;5213;53.548;9.930;2023-01-16T09:27:17;1.90;;;1.60;;
10335;SDS011;5213;53.548;9.930;2023-01-16T09:29:44;2.35;;;1.55;;
10335;SDS011;5213;53.548;9.930;2023-01-16T09:32:10;2.75;;;1.42;;
10335;SDS011;5213;53.548;9.930;2023-01-16T09:34:37;1.70;;;1.60;;
10335;SDS011;5213;53.548;9.930;2023-01-16T09:37:04;2.75;;;1.65;;
10335;SDS011;5213;53.548;9.930;2023-01-16T09:39:30;4.20;;;1.73;;
10335;SDS011;5213;53.548;9.930;2023-01-16T09:44:47;2.80;;;1.52;;
10335;SDS011;5213;53.548;9.930;2023-01-16T09:47:14;2.88;;;1.70;;
10335;SDS011;5213;53.548;9.930;2023-01-16T09:49:51;2.53;;;1.88;;
10335;SDS011;5213;53.548;9.930;2023-01-16T09:52:19;3.40;;;1.98;;
10335;SDS011;5213;53.548;9.930;2023-01-16T09:55:06;2.45;;;1.70;;
10335;SDS011;5213;53.548;9.930;2023-01-16T09:57:55;3.97;;;1.77;;
10335;SDS011;5213;53.548;9.930;2023-01-16T10:00:39;3.45;;;2.00;;
10335;SDS011;5213;53.548;9.930;2023-01-16T10:03:06;3.70;;;1.60;;
10335;SDS011;5213;53.548;9.930;2023-01-16T10:05:38;2.72;;;1.67;;
10335;SDS011;5213;53.548;9.930;2023-01-16T10:08:15;1.75;;;1.60;;
10335;SDS011;5213;53.548;9.930;2023-01-16T10:10:45;1.70;;;1.60;;
10335;SDS011;5213;53.548;9.930;2023-01-16T10:18:42;1.48;;;1.33;;
10335;SDS011;5213;53.548;9.930;2023-01-16T10:21:20;1.40;;;1.30;;
10335;SDS011;5213;53.548;9.930;2023-01-16T10:26:18;1.75;;;1.45;;
10335;SDS011;5213;53.548;9.930;2023-01-16T10:29:03;3.03;;;1.50;;
10335;SDS011;5213;53.548;9.930;2023-01-16T10:31:33;5.60;;;1.38;;
10335;SDS011;5213;53.548;9.930;2023-01-16T10:34:12;2.15;;;1.30;;
10335;SDS011;5213;53.548;9.930;2023-01-16T10:36:45;1.67;;;1.38;;
10335;SDS011;5213;53.548;9.930;2023-01-16T10:39:13;1.75;;;1.40;;
10335;SDS011;5213;53.548;9.930;2023-01-16T10:41:50;1.75;;;1.42;;
10335;SDS011;5213;53.548;9.930;2023-01-16T10:44:39;2.65;;;1.60;;
10335;SDS011;5213;53.548;9.930;2023-01-16T10:47:30;2.47;;;1.35;;
10335;SDS011;5213;53.548;9.930;2023-01-16T10:50:15;2.15;;;1.52;;
10335;SDS011;5213;53.548;9.930;2023-01-16T10:52:42;2.08;;;1.40;;
10335;SDS011;5213;53.548;9.930;2023-01-16T10:55:08;6.55;;;1.45;;
10335;SDS011;5213;53.548;9.930;2023-01-16T10:57:35;2.17;;;1.50;;
10335;SDS011;5213;53.548;9.930;2023-01-16T11:00:12;2.67;;;1.30;;
10335;SDS011;5213;53.548;9.930;2023-01-16T11:02:40;2.17;;;1.50;;
10335;SDS011;5213;53.548;9.930;2023-01-16T11:07:52;3.03;;;1.65;;
10335;SDS011;5213;53.548;9.930;2023-01-16T11:10:18;1.80;;;1.40;;
10335;SDS011;5213;53.548;9.930;2023-01-16T11:12:44;5.72;;;2.20;;
10335;SDS011;5213;53.548;9.930;2023-01-16T11:15:29;3.65;;;1.88;;
10335;SDS011;5213;53.548;9.930;2023-01-16T11:18:18;5.20;;;1.83;;
10335;SDS011;5213;53.548;9.930;2023-01-16T11:20:53;4.55;;;1.77;;
10335;SDS011;5213;53.548;9.930;2023-01-16T11:23:23;2.35;;;1.60;;
10335;SDS011;5213;53.548;9.930;2023-01-16T11:25:50;2.85;;;1.40;;
10335;SDS011;5213;53.548;9.930;2023-01-16T11:28:21;3.05;;;1.88;;
10335;SDS011;5213;53.548;9.930;2023-01-16T11:30:48;1.75;;;1.25;;
10335;SDS011;5213;53.548;9.930;2023-01-16T11:33:17;1.42;;;1.33;;
10335;SDS011;5213;53.548;9.930;2023-01-16T11:35:50;2.92;;;1.50;;
10335;SDS011;5213;53.548;9.930;2023-01-16T11:38:17;1.75;;;1.40;;
10335;SDS011;5213;53.548;9.930;2023-01-16T11:40:44;2.90;;;1.42;;
10335;SDS011;5213;53.548;9.930;2023-01-16T11:43:17;1.50;;;1.35;;
10335;SDS011;5213;53.548;9.930;2023-01-16T11:46:09;2.55;;;1.40;;
10335;SDS011;5213;53.548;9.930;2023-01-16T11:48:45;2.20;;;1.35;;
10335;SDS011;5213;53.548;9.930;2023-01-16T11:51:17;5.53;;;1.30;;
10335;SDS011;5213;53.548;9.930;2023-01-16T11:53:44;2.80;;;1.30;;
10335;SDS011;5213;53.548;9.930;2023-01-16T11:59:12;1.83;;;1.40;;
10335;SDS011;5213;53.548;9.930;2023-01-16T12:04:37;4.18;;;1.27;;
10335;SDS011;5213;53.548;9.930;2023-01-16T12:12:10;3.80;;;1.58;;
10335;SDS011;5213;53.548;9.930;2023-01-16T12:14:57;1.25;;;1.10;;
10335;SDS011;5213;53.548;9.930;2023-01-16T12:17:31;1.60;;;1.20;;
10335;SDS011;5213;53.548;9.930;2023-01-16T12:23:01;5.82;;;1.70;;
10335;SDS011;5213;53.548;9.930;2023-01-16T12:30:49;2.10;;;1.40;;
10335;SDS011;5213;53.548;9.930;2023-01-16T12:33:29;2.08;;;1.33;;
10335;SDS011;5213;53.548;9.930;2023-01-16T12:36:00;2.28;;;1.20;;
10335;SDS011;5213;53.548;9.930;2023-01-16T12:38:45;1.10;;;1.00;;
10335;SDS011;5213;53.548;9.930;2023-01-16T12:41:19;2.50;;;1.73;;
10335;SDS011;5213;53.548;9.930;2023-01-16T12:46:52;1.55;;;1.05;;
10335;SDS011;5213;53.548;9.930;2023-01-16T12:52:05;3.15;;;1.30;;
10335;SDS011;5213;53.548;9.930;2023-01-16T12:59:49;2.35;;;1.45;;
10335;SDS011;5213;53.548;9.930;2023-01-16T13:04:44;2.25;;;1.50;;
10335;SDS011;5213;53.548;9.930;2023-01-16T13:07:13;1.88;;;1.30;;
10335;SDS011;5213;53.548;9.930;2023-01-16T13:09:51;1.40;;;1.30;;
10335;SDS011;5213;53.548;9.930;2023-01-16T13:12:39;1.55;;;1.40;;
10335;SDS011;5213;53.548;9.930;2023-01-16T13:15:25;2.22;;;1.38;;
10335;SDS011;5213;53.548;9.930;2023-01-16T13:17:55;1.92;;;1.40;;
10335;SDS011;5213;53.548;9.930;2023-01-16T13:20:22;3.85;;;1.23;;
10335;SDS011;5213;53.548;9.930;2023-01-16T13:22:51;1.50;;;1.40;;
10335;SDS011;5213;53.548;9.930;2023-01-16T13:25:20;1.38;;;1.27;;
10335;SDS011;5213;53.548;9.930;2023-01-16T13:27:50;1.80;;;1.15;;
10335;SDS011;5213;53.548;9.930;2023-01-16T13:30:19;1.33;;;1.20;;
10335;SDS011;5213;53.548;9.930;2023-01-16T13:32:57;1.17;;;1.10;;
10335;SDS011;5213;53.548;9.930;2023-01-16T13:35:26;1.48;;;1.38;;
10335;SDS011;5213;53.548;9.930;2023-01-16T13:38:10;2.65;;;1.30;;
10335;SDS011;5213;53.548;9.930;2023-01-16T13:40:52;1.85;;;1.60;;
10335;SDS011;5213;53.548;9.930;2023-01-16T13:43:23;1.45;;;1.33;;
10335;SDS011;5213;53.548;9.930;2023-01-16T13:46:09;1.38;;;1.25;;
10335;SDS011;5213;53.548;9.930;2023-01-16T13:48:35;1.40;;;1.30;;
10335;SDS011;5213;53.548;9.930;2023-01-16T13:51:03;1.50;;;1.40;;
10335;SDS011;5213;53.548;9.930;2023-01-16T13:53:32;4.38;;;1.50;;
10335;SDS011;5213;53.548;9.930;2023-01-16T13:56:08;2.80;;;1.48;;
10335;SDS011;5213;53.548;9.930;2023-01-16T13:58:39;2.60;;;1.52;;
10335;SDS011;5213;53.548;9.930;2023-01-16T14:01:06;1.50;;;1.40;;
10335;SDS011;5213;53.548;9.930;2023-01-16T14:06:44;1.85;;;1.50;;
10335;SDS011;5213;53.548;9.930;2023-01-16T14:17:28;2.05;;;1.50;;
10335;SDS011;5213;53.548;9.930;2023-01-16T14:20:00;3.13;;;1.65;;
10335;SDS011;5213;53.548;9.930;2023-01-16T14:22:36;2.20;;;1.73;;
10335;SDS011;5213;53.548;9.930;2023-01-16T14:25:05;2.40;;;1.48;;
10335;SDS011;5213;53.548;9.930;2023-01-16T14:27:33;2.67;;;1.42;;
10335;SDS011;5213;53.548;9.930;2023-01-16T14:30:03;1.63;;;1.40;;
10335;SDS011;5213;53.548;9.930;2023-01-16T14:32:31;3.58;;;1.45;;
10335;SDS011;5213;53.548;9.930;2023-01-16T14:34:58;3.95;;;1.45;;
10335;SDS011;5213;53.548;9.930;2023-01-16T14:37:40;2.83;;;1.60;;
10335;SDS011;5213;53.548;9.930;2023-01-16T14:48:11;1.70;;;1.48;;
10335;SDS011;5213;53.548;9.930;2023-01-16T14:51:01;1.45;;;1.35;;
10335;SDS011;5213;53.548;9.930;2023-01-16T14:54:11;2.40;;;1.48;;
10335;SDS011;5213;53.548;9.930;2023-01-16T14:59:32;1.88;;;1.33;;
10335;SDS011;5213;53.548;9.930;2023-01-16T15:02:11;1.95;;;1.27;;
10335;SDS011;5213;53.548;9.930;2023-01-16T15:07:47;2.13;;;1.27;;
10335;SDS011;5213;53.548;9.930;2023-01-16T15:10:19;2.42;;;1.60;;
10335;SDS011;5213;53.548;9.930;2023-01-16T15:12:46;2.88;;;1.23;;
10335;SDS011;5213;53.548;9.930;2023-01-16T15:15:18;2.67;;;1.60;;
10335;SDS011;5213;53.548;9.930;2023-01-16T15:17:45;3.20;;;1.50;;
10335;SDS011;5213;53.548;9.930;2023-01-16T15:20:30;3.33;;;1.30;;
10335;SDS011;5213;53.548;9.930;2023-01-16T15:23:17;2.13;;;1.40;;
10335;SDS011;5213;53.548;9.930;2023-01-16T15:30:59;2.85;;;1.40;;
10335;SDS011;5213;53.548;9.930;2023-01-16T15:38:48;1.60;;;1.50;;
10335;SDS011;5213;53.548;9.930;2023-01-16T15:41:18;3.33;;;1.70;;
10335;SDS011;5213;53.548;9.930;2023-01-16T15:44:08;2.97;;;1.83;;
10335;SDS011;5213;53.548;9.930;2023-01-16T15:52:31;2.17;;;1.38;;
10335;SDS011;5213;53.548;9.930;2023-01-16T15:55:21;2.67;;;1.45;;
10335;SDS011;5213;53.548;9.930;2023-01-16T15:57:52;1.95;;;1.40;;
10335;SDS011;5213;53.548;9.930;2023-01-16T16:00:23;2.10;;;1.40;;
10335;SDS011;5213;53.548;9.930;2023-01-16T16:02:49;2.38;;;1.52;;
10335;SDS011;5213;53.548;9.930;2023-01-16T16:05:16;1.40;;;1.30;;
10335;SDS011;5213;53.548;9.930;2023-01-16T16:07:45;3.55;;;1.60;;
10335;SDS011;5213;53.548;9.930;2023-01-16T16:10:12;3.83;;;1.63;;
10335;SDS011;5213;53.548;9.930;2023-01-16T16:13:03;1.90;;;1.60;;
10335;SDS011;5213;53.548;9.930;2023-01-16T16:15:29;4.05;;;1.52;;
10335;SDS011;5213;53.548;9.930;2023-01-16T16:18:15;2.67;;;1.45;;
10335;SDS011;5213;53.548;9.930;2023-01-16T16:20:42;1.90;;;1.40;;
10335;SDS011;5213;53.548;9.930;2023-01-16T16:23:20;5.15;;;1.58;;
10335;SDS011;5213;53.548;9.930;2023-01-16T16:28:17;2.70;;;1.60;;
10335;SDS011;5213;53.548;9.930;2023-01-16T16:30:44;1.52;;;1.38;;
10335;SDS011;5213;53.548;9.930;2023-01-16T16:33:14;2.70;;;1.40;;
10335;SDS011;5213;53.548;9.930;2023-01-16T16:35:41;3.03;;;1.65;;
10335;SDS011;5213;53.548;9.930;2023-01-16T16:38:19;1.48;;;1.30;;
10335;SDS011;5213;53.548;9.930;2023-01-16T16:40:50;2.85;;;1.48;;
10335;SDS011;5213;53.548;9.930;2023-01-16T16:48:57;1.83;;;1.73;;
10335;SDS011;5213;53.548;9.930;2023-01-16T16:51:30;2.22;;;1.50;;
10335;SDS011;5213;53.548;9.930;2023-01-16T16:54:03;1.85;;;1.48;;
10335;SDS011;5213;53.548;9.930;2023-01-16T16:56:30;3.33;;;1.60;;
10335;SDS011;5213;53.548;9.930;2023-01-16T16:58:58;1.30;;;1.20;;
10335;SDS011;5213;53.548;9.930;2023-01-16T17:01:24;5.70;;;2.88;;
10335;SDS011;5213;53.548;9.930;2023-01-16T17:03:52;1.60;;;1.50;;
10335;SDS011;5213;53.548;9.930;2023-01-16T17:06:21;2.90;;;1.42;;
10335;SDS011;5213;53.548;9.930;2023-01-16T17:08:47;2.53;;;1.65;;
10335;SDS011;5213;53.548;9.930;2023-01-16T17:11:13;2.35;;;1.52;;
10335;SDS011;5213;53.548;9.930;2023-01-16T17:13:39;3.03;;;1.48;;
10335;SDS011;5213;53.548;9.930;2023-01-16T17:16:11;2.65;;;1.35;;
10335;SDS011;5213;53.548;9.930;2023-01-16T17:18:38;1.40;;;1.25;;
10335;SDS011;5213;53.548;9.930;2023-01-16T17:21:04;1.20;;;1.20;;
10335;SDS011;5213;53.548;9.930;2023-01-16T17:23:30;1.58;;;1.30;;
10335;SDS011;5213;53.548;9.930;2023-01-16T17:25:56;1.55;;;1.05;;
10335;SDS011;5213;53.548;9.930;2023-01-16T17:28:35;5.32;;;2.40;;
10335;SDS011;5213;53.548;9.930;2023-01-16T17:31:01;1.40;;;1.30;;
10335;SDS011;5213;53.548;9.930;2023-01-16T17:33:27;2.05;;;1.10;;
10335;SDS011;5213;53.548;9.930;2023-01-16T17:35:55;1.35;;;1.25;;
10335;SDS011;5213;53.548;9.930;2023-01-16T17:38:34;1.45;;;1.35;;
10335;SDS011;5213;53.548;9.930;2023-01-16T17:41:00;2.22;;;1.40;;
10335;SDS011;5213;53.548;9.930;2023-01-16T17:43:26;1.52;;;1.42;;
10335;SDS011;5213;53.548;9.930;2023-01-16T17:46:12;1.60;;;1.50;;